createdAt,value
2022-10-27T00:01:36.893Z,2.70
2022-10-27T00:04:04.407Z,2.42
2022-10-27T00:06:34.403Z,2.95
2022-10-27T00:09:00.898Z,2.67
2022-10-27T00:11:29.983Z,2.58
2022-10-27T00:13:56.432Z,2.42
2022-10-27T00:16:23.017Z,2.38
2022-10-27T00:18:52.207Z,2.22
2022-10-27T00:21:20.573Z,2.45
2022-10-27T00:23:51.040Z,2.50
2022-10-27T00:26:22.728Z,2.40
2022-10-27T00:28:49.294Z,2.40
2022-10-27T00:31:17.001Z,2.20
2022-10-27T00:33:47.100Z,2.38
2022-10-27T00:36:20.547Z,2.58
2022-10-27T00:38:47.498Z,2.78
2022-10-27T00:41:29.616Z,2.60
2022-10-27T00:43:57.362Z,2.70
2022-10-27T00:46:46.176Z,2.80
2022-10-27T00:49:15.064Z,2.50
2022-10-27T00:52:06.811Z,2.38
2022-10-27T00:54:42.296Z,2.63
2022-10-27T00:57:11.149Z,2.53
2022-10-27T00:59:38.680Z,2.50
2022-10-27T01:02:11.184Z,2.60
2022-10-27T01:04:47.889Z,2.40
2022-10-27T01:07:17.004Z,3.13
2022-10-27T01:09:44.656Z,2.40
2022-10-27T01:12:11.333Z,2.60
2022-10-27T01:14:38.036Z,2.50
2022-10-27T01:17:31.798Z,2.00
2022-10-27T01:20:10.178Z,2.45
2022-10-27T01:23:00.290Z,2.35
2022-10-27T01:25:38.713Z,2.30
2022-10-27T01:28:23.084Z,2.30
2022-10-27T01:31:14.733Z,2.15
2022-10-27T01:33:51.628Z,2.30
2022-10-27T01:36:34.846Z,1.92
2022-10-27T01:39:12.680Z,2.30
2022-10-27T01:41:50.409Z,2.50
2022-10-27T01:44:26.519Z,2.20
2022-10-27T01:46:55.482Z,2.53
2022-10-27T01:49:21.983Z,2.30
2022-10-27T01:51:49.750Z,2.50
2022-10-27T01:54:20.024Z,2.20
2022-10-27T01:57:02.539Z,2.50
2022-10-27T02:00:04.903Z,2.20
2022-10-27T02:05:12.786Z,2.58
2022-10-27T02:07:55.527Z,2.30
2022-10-27T02:10:32.740Z,2.30
2022-10-27T02:13:03.421Z,2.30
2022-10-27T02:15:35.452Z,2.20
2022-10-27T02:18:33.801Z,2.30
2022-10-27T02:21:04.725Z,2.40
2022-10-27T02:23:31.603Z,2.25
2022-10-27T02:26:09.184Z,2.20
2022-10-27T02:29:02.796Z,2.25
2022-10-27T02:31:37.698Z,2.47
2022-10-27T02:34:06.365Z,2.50
2022-10-27T02:36:33.349Z,2.35
2022-10-27T02:38:59.905Z,2.13
2022-10-27T02:41:26.388Z,2.03
2022-10-27T02:43:52.850Z,2.35
2022-10-27T02:46:19.395Z,2.30
2022-10-27T02:48:45.823Z,2.25
2022-10-27T02:51:12.327Z,2.47
2022-10-27T02:53:38.809Z,2.45
2022-10-27T02:56:05.673Z,2.30
2022-10-27T02:58:32.140Z,2.28
2022-10-27T03:01:01.252Z,2.20
2022-10-27T03:03:27.850Z,2.22
2022-10-27T03:05:54.337Z,2.35
2022-10-27T03:08:20.853Z,2.17
2022-10-27T03:10:47.345Z,2.33
2022-10-27T03:13:13.886Z,2.17
2022-10-27T03:15:40.390Z,2.47
2022-10-27T03:18:06.923Z,2.80
2022-10-27T03:20:33.411Z,2.75
2022-10-27T03:22:59.919Z,2.70
2022-10-27T03:25:26.414Z,2.80
2022-10-27T03:27:52.980Z,2.40
2022-10-27T03:30:19.630Z,2.60
2022-10-27T03:32:48.514Z,2.30
2022-10-27T03:35:16.693Z,2.65
2022-10-27T03:37:43.473Z,3.08
2022-10-27T03:40:10.512Z,2.63
2022-10-27T03:42:42.286Z,2.63
2022-10-27T03:45:10.604Z,3.03
2022-10-27T03:47:37.158Z,2.92
2022-10-27T03:50:04.655Z,3.22
2022-10-27T03:52:33.227Z,2.60
2022-10-27T03:55:00.116Z,2.75
2022-10-27T03:57:26.616Z,2.80
2022-10-27T03:59:53.157Z,3.03
2022-10-27T04:02:19.662Z,2.55
2022-10-27T04:04:46.146Z,2.88
2022-10-27T04:07:12.579Z,2.90
2022-10-27T04:09:39.109Z,2.95
2022-10-27T04:12:05.910Z,3.25
2022-10-27T04:14:32.399Z,2.90
2022-10-27T04:16:58.887Z,2.83
2022-10-27T04:19:25.415Z,2.70
2022-10-27T04:21:51.922Z,2.90
2022-10-27T04:24:18.377Z,2.70
2022-10-27T04:26:45.020Z,2.85
2022-10-27T04:29:11.456Z,2.55
2022-10-27T04:31:37.941Z,2.80
2022-10-27T04:34:04.405Z,2.65
2022-10-27T04:36:30.955Z,3.05
2022-10-27T04:38:57.409Z,3.10
2022-10-27T04:41:23.971Z,3.00
2022-10-27T04:46:23.112Z,3.40
2022-10-27T04:48:49.578Z,3.20
2022-10-27T04:51:19.319Z,3.10
2022-10-27T04:53:48.983Z,3.33
2022-10-27T04:56:15.492Z,3.13
2022-10-27T04:58:42.340Z,3.15
2022-10-27T05:01:10.923Z,3.08
2022-10-27T05:03:37.959Z,2.92
2022-10-27T05:06:05.629Z,3.30
2022-10-27T05:08:32.803Z,2.90
2022-10-27T05:10:59.263Z,3.67
2022-10-27T05:13:26.034Z,3.38
2022-10-27T05:15:52.489Z,3.33
2022-10-27T05:18:18.991Z,3.10
2022-10-27T05:20:45.504Z,3.35
2022-10-27T05:23:12.186Z,3.60
2022-10-27T05:25:38.763Z,3.28
2022-10-27T05:28:07.054Z,3.90
2022-10-27T05:30:34.140Z,3.28
2022-10-27T05:33:00.775Z,4.13
2022-10-27T05:35:27.534Z,3.70
2022-10-27T05:37:54.234Z,4.20
2022-10-27T05:40:20.921Z,4.35
2022-10-27T05:42:55.780Z,4.53
2022-10-27T05:45:24.091Z,5.03
2022-10-27T05:48:01.194Z,4.70
2022-10-27T05:50:29.000Z,4.50
2022-10-27T05:52:55.761Z,4.50
2022-10-27T05:55:23.377Z,4.93
2022-10-27T05:58:01.550Z,4.82
2022-10-27T06:00:35.205Z,4.35
2022-10-27T06:03:03.561Z,4.38
2022-10-27T06:05:31.745Z,4.13
2022-10-27T06:07:58.820Z,4.13
2022-10-27T06:10:25.696Z,4.30
2022-10-27T06:12:52.333Z,4.60
2022-10-27T06:15:18.814Z,3.70
2022-10-27T06:17:45.310Z,4.53
2022-10-27T06:20:11.949Z,3.88
2022-10-27T06:22:38.484Z,4.10
2022-10-27T06:25:05.301Z,3.70
2022-10-27T06:27:31.858Z,3.90
2022-10-27T06:29:58.309Z,4.15
2022-10-27T06:34:52.281Z,4.03
2022-10-27T06:37:18.781Z,4.47
2022-10-27T06:39:45.640Z,3.70
2022-10-27T06:42:12.135Z,4.55
2022-10-27T06:44:38.665Z,4.00
2022-10-27T06:47:05.160Z,3.78
2022-10-27T06:49:31.636Z,3.63
2022-10-27T06:52:00.268Z,4.78
2022-10-27T06:54:26.792Z,4.30
2022-10-27T06:56:53.276Z,4.13
2022-10-27T06:59:19.777Z,4.45
2022-10-27T07:01:46.310Z,4.35
2022-10-27T07:04:13.139Z,4.60
2022-10-27T07:06:39.630Z,4.95
2022-10-27T07:09:08.869Z,4.18
2022-10-27T07:11:36.411Z,4.43
2022-10-27T07:14:03.366Z,4.38
2022-10-27T07:16:34.167Z,4.25
2022-10-27T07:19:01.675Z,3.92
2022-10-27T07:21:28.719Z,3.85
2022-10-27T07:23:55.238Z,4.03
2022-10-27T07:26:21.872Z,4.03
2022-10-27T07:28:48.376Z,4.00
2022-10-27T07:31:14.943Z,3.92
2022-10-27T07:33:41.418Z,3.80
2022-10-27T07:36:08.201Z,3.60
2022-10-27T07:38:35.453Z,3.65
2022-10-27T07:41:02.067Z,4.20
2022-10-27T07:43:28.518Z,4.07
2022-10-27T07:45:55.122Z,4.10
2022-10-27T07:48:21.619Z,3.95
2022-10-27T07:50:48.112Z,5.20
2022-10-27T07:53:18.580Z,4.50
2022-10-27T07:55:45.049Z,3.47
2022-10-27T07:58:16.244Z,4.25
2022-10-27T08:00:47.939Z,3.90
2022-10-27T08:03:23.118Z,3.83
2022-10-27T08:05:49.782Z,4.40
2022-10-27T08:08:16.689Z,4.55
2022-10-27T08:10:44.821Z,3.42
2022-10-27T08:13:12.297Z,4.25
2022-10-27T08:15:40.691Z,3.08
2022-10-27T08:18:08.475Z,3.10
2022-10-27T08:20:38.793Z,2.47
2022-10-27T08:23:10.066Z,2.58
2022-10-27T08:25:36.637Z,2.08
2022-10-27T08:28:03.430Z,1.80
2022-10-27T08:30:34.024Z,2.22
2022-10-27T08:33:03.594Z,1.97
2022-10-27T08:35:34.495Z,2.10
2022-10-27T08:38:13.778Z,1.90
2022-10-27T08:40:49.384Z,1.92
2022-10-27T08:43:52.825Z,2.30
2022-10-27T08:46:38.688Z,2.00
2022-10-27T08:49:11.725Z,2.00
2022-10-27T08:51:40.389Z,2.13
2022-10-27T08:54:07.829Z,2.15
2022-10-27T08:56:41.792Z,2.15
2022-10-27T08:59:18.262Z,2.10
2022-10-27T09:01:49.675Z,2.20
2022-10-27T09:04:29.337Z,2.00
2022-10-27T09:07:00.489Z,2.20
2022-10-27T09:09:29.909Z,2.25
2022-10-27T09:12:25.981Z,2.10
2022-10-27T09:15:38.595Z,2.05
2022-10-27T09:18:10.264Z,2.53
2022-10-27T09:20:59.203Z,2.50
2022-10-27T09:23:39.456Z,2.53
2022-10-27T09:26:07.926Z,2.35
2022-10-27T09:28:45.250Z,2.20
2022-10-27T09:31:16.386Z,2.45
2022-10-27T09:33:52.879Z,2.50
2022-10-27T09:36:22.276Z,2.95
2022-10-27T09:38:48.976Z,3.08
2022-10-27T09:41:15.731Z,2.85
2022-10-27T09:43:42.387Z,2.75
2022-10-27T09:46:32.110Z,2.90
2022-10-27T09:49:05.560Z,2.97
2022-10-27T09:51:57.981Z,2.80
2022-10-27T09:54:36.777Z,2.90
2022-10-27T09:57:13.750Z,3.10
2022-10-27T09:59:41.277Z,2.80
2022-10-27T10:02:47.199Z,3.10
2022-10-27T10:05:24.543Z,2.58
2022-10-27T10:07:51.715Z,2.58
2022-10-27T10:10:29.503Z,2.50
2022-10-27T10:13:02.545Z,2.58
2022-10-27T10:15:30.703Z,2.40
2022-10-27T10:18:01.195Z,2.60
2022-10-27T10:20:33.542Z,2.60
2022-10-27T10:23:02.703Z,2.20
2022-10-27T10:25:36.857Z,2.50
2022-10-27T10:28:06.511Z,2.33
2022-10-27T10:30:38.921Z,1.77
2022-10-27T10:33:06.930Z,1.80
2022-10-27T10:35:50.249Z,2.20
2022-10-27T10:38:26.612Z,1.90
2022-10-27T10:41:12.564Z,1.90
2022-10-27T10:43:40.507Z,2.00
2022-10-27T10:46:24.338Z,1.58
2022-10-27T10:48:56.245Z,1.55
2022-10-27T10:53:59.804Z,1.48
2022-10-27T10:56:34.970Z,1.60
2022-10-27T10:59:03.195Z,1.50
2022-10-27T11:01:53.539Z,1.83
2022-10-27T11:04:24.695Z,1.58
2022-10-27T11:06:59.576Z,1.48
2022-10-27T11:09:31.734Z,1.38
2022-10-27T11:11:59.269Z,1.40
2022-10-27T11:14:28.387Z,1.45
2022-10-27T11:17:01.814Z,1.40
2022-10-27T11:19:36.984Z,1.60
2022-10-27T11:22:10.819Z,1.40
2022-10-27T11:24:51.292Z,1.60
2022-10-27T11:28:00.643Z,1.27
2022-10-27T11:30:29.005Z,1.58
2022-10-27T11:33:09.837Z,1.30
2022-10-27T11:35:48.949Z,1.20
2022-10-27T11:38:44.454Z,1.40
2022-10-27T11:41:21.813Z,1.20
2022-10-27T11:44:04.758Z,1.20
2022-10-27T11:46:52.963Z,1.65
2022-10-27T11:49:42.543Z,1.45
2022-10-27T11:52:09.012Z,1.55
2022-10-27T11:54:35.727Z,1.00
2022-10-27T11:57:39.653Z,0.95
2022-10-27T12:00:33.086Z,1.10
2022-10-27T12:03:24.167Z,1.00
2022-10-27T12:05:58.130Z,1.02
2022-10-27T12:08:29.830Z,1.00
2022-10-27T12:11:26.938Z,1.10
2022-10-27T12:13:57.397Z,1.17
2022-10-27T12:17:08.825Z,1.00
2022-10-27T12:19:44.275Z,1.00
2022-10-27T12:22:20.419Z,0.75
2022-10-27T12:24:56.007Z,0.88
2022-10-27T12:27:25.525Z,0.85
2022-10-27T12:29:57.234Z,0.80
2022-10-27T12:32:40.856Z,0.88
2022-10-27T12:35:23.190Z,0.93
2022-10-27T12:37:57.450Z,0.90
2022-10-27T12:40:39.305Z,0.85
2022-10-27T12:43:15.008Z,0.77
2022-10-27T12:45:58.057Z,0.90
2022-10-27T12:48:53.040Z,0.80
2022-10-27T12:51:32.022Z,1.10
2022-10-27T12:54:16.937Z,0.90
2022-10-27T12:56:52.779Z,1.20
2022-10-27T12:59:51.625Z,0.90
2022-10-27T13:02:23.112Z,0.90
2022-10-27T13:05:17.369Z,1.10
2022-10-27T13:08:03.780Z,1.23
2022-10-27T13:10:59.020Z,1.35
2022-10-27T13:13:28.607Z,1.73
2022-10-27T13:16:24.272Z,1.20
2022-10-27T13:19:12.276Z,1.20
2022-10-27T13:21:38.827Z,1.67
2022-10-27T13:24:08.138Z,1.58
2022-10-27T13:26:42.502Z,1.85
2022-10-27T13:29:37.952Z,1.45
2022-10-27T13:32:19.736Z,1.80
2022-10-27T13:35:06.129Z,1.55
2022-10-27T13:37:40.777Z,1.92
2022-10-27T13:40:20.245Z,2.28
2022-10-27T13:42:48.974Z,2.33
2022-10-27T13:45:27.653Z,2.60
2022-10-27T13:48:13.613Z,2.30
2022-10-27T13:50:42.558Z,2.55
2022-10-27T13:53:15.296Z,2.30
2022-10-27T13:56:09.537Z,2.78
2022-10-27T13:58:56.579Z,2.58
2022-10-27T14:01:32.279Z,2.55
2022-10-27T14:04:21.945Z,2.80
2022-10-27T14:06:57.708Z,2.33
2022-10-27T14:09:35.252Z,2.50
2022-10-27T14:12:12.842Z,2.35
2022-10-27T14:14:40.939Z,2.25
2022-10-27T14:17:21.364Z,2.45
2022-10-27T14:20:05.926Z,2.47
2022-10-27T14:22:47.241Z,2.17
2022-10-27T14:25:25.500Z,2.35
2022-10-27T14:28:16.859Z,2.40
2022-10-27T14:30:44.602Z,2.57
2022-10-27T14:33:27.710Z,2.08
2022-10-27T14:36:22.724Z,2.38
2022-10-27T14:38:53.978Z,2.67
2022-10-27T14:41:24.529Z,2.20
2022-10-27T14:43:54.240Z,2.20
2022-10-27T14:46:24.059Z,2.33
2022-10-27T14:49:04.636Z,2.45
2022-10-27T14:51:36.321Z,2.25
2022-10-27T14:54:04.592Z,2.15
2022-10-27T14:56:32.945Z,2.13
2022-10-27T14:59:02.082Z,2.20
2022-10-27T15:01:35.710Z,2.35
2022-10-27T15:04:14.614Z,2.47
2022-10-27T15:06:45.215Z,2.17
2022-10-27T15:09:42.355Z,2.22
2022-10-27T15:12:24.524Z,2.08
2022-10-27T15:14:53.272Z,2.35
2022-10-27T15:17:35.168Z,2.50
2022-10-27T15:20:05.286Z,2.10
2022-10-27T15:22:34.082Z,2.08
2022-10-27T15:25:02.993Z,2.50
2022-10-27T15:27:34.509Z,2.42
2022-10-27T15:30:01.988Z,2.55
2022-10-27T15:32:41.395Z,2.55
2022-10-27T15:35:43.466Z,2.45
2022-10-27T15:38:27.766Z,2.35
2022-10-27T15:41:06.069Z,2.78
2022-10-27T15:43:33.300Z,2.47
2022-10-27T15:46:22.270Z,2.20
2022-10-27T15:49:16.918Z,2.30
2022-10-27T15:51:52.012Z,2.35
2022-10-27T15:54:22.922Z,3.05
2022-10-27T15:56:54.166Z,6.43
2022-10-27T15:59:23.623Z,4.93
2022-10-27T16:02:03.425Z,3.92
2022-10-27T16:04:38.395Z,2.90
2022-10-27T16:07:25.084Z,3.15
2022-10-27T16:09:51.558Z,3.00
2022-10-27T16:12:28.769Z,3.00
2022-10-27T16:15:04.357Z,2.80
2022-10-27T16:17:43.652Z,2.60
2022-10-27T16:20:39.135Z,2.67
2022-10-27T16:23:11.746Z,2.83
2022-10-27T16:25:40.715Z,2.30
2022-10-27T16:28:24.392Z,2.75
2022-10-27T16:30:51.088Z,2.85
2022-10-27T16:33:22.769Z,2.63
2022-10-27T16:35:49.624Z,3.08
2022-10-27T16:38:16.322Z,2.80
2022-10-27T16:40:47.653Z,2.80
2022-10-27T16:45:51.928Z,2.60
2022-10-27T16:48:18.420Z,3.28
2022-10-27T16:50:46.335Z,2.40
2022-10-27T16:53:16.754Z,2.80
2022-10-27T16:55:43.314Z,2.58
2022-10-27T16:58:09.748Z,2.67
2022-10-27T17:00:36.242Z,2.63
2022-10-27T17:03:02.682Z,2.67
2022-10-27T17:05:29.193Z,2.78
2022-10-27T17:07:55.857Z,2.47
2022-10-27T17:12:50.052Z,2.70
2022-10-27T17:15:16.952Z,2.35
2022-10-27T17:17:43.823Z,3.05
2022-10-27T17:20:10.550Z,3.00
2022-10-27T17:22:37.202Z,3.15
2022-10-27T17:25:04.609Z,3.58
2022-10-27T17:27:31.175Z,3.22
2022-10-27T17:29:57.670Z,2.72
2022-10-27T17:32:24.154Z,3.53
2022-10-27T17:34:50.592Z,3.97
2022-10-27T17:37:17.073Z,3.58
2022-10-27T17:39:43.502Z,3.80
2022-10-27T17:42:10.227Z,3.65
2022-10-27T17:44:36.722Z,3.35
2022-10-27T17:47:03.199Z,3.15
2022-10-27T17:49:29.734Z,3.47
2022-10-27T17:51:59.062Z,3.55
2022-10-27T17:54:25.545Z,3.38
2022-10-27T17:56:52.050Z,3.17
2022-10-27T17:59:20.113Z,3.58
2022-10-27T18:01:48.627Z,3.20
2022-10-27T18:04:15.771Z,3.40
2022-10-27T18:06:43.002Z,3.25
2022-10-27T18:09:10.556Z,3.25
2022-10-27T18:11:38.095Z,3.50
2022-10-27T18:14:08.115Z,3.17
2022-10-27T18:16:36.395Z,3.35
2022-10-27T18:19:12.093Z,3.30
2022-10-27T18:21:40.507Z,3.22
2022-10-27T18:24:08.767Z,3.42
2022-10-27T18:26:37.568Z,3.95
2022-10-27T18:29:05.340Z,3.58
2022-10-27T18:31:37.506Z,3.40
2022-10-27T18:34:06.131Z,3.67
2022-10-27T18:36:33.482Z,3.00
2022-10-27T18:39:01.380Z,3.42
2022-10-27T18:41:30.626Z,3.30
2022-10-27T18:43:57.154Z,3.40
2022-10-27T18:46:26.746Z,3.42
2022-10-27T18:48:55.681Z,3.50
2022-10-27T18:51:22.585Z,3.08
2022-10-27T18:53:56.908Z,3.13
2022-10-27T18:56:25.106Z,3.05
2022-10-27T18:59:04.150Z,3.15
2022-10-27T19:01:30.946Z,3.75
2022-10-27T19:04:02.759Z,9.52
2022-10-27T19:06:32.637Z,11.50
2022-10-27T19:08:59.865Z,7.97
2022-10-27T19:11:26.833Z,3.45
2022-10-27T19:13:54.576Z,3.70
2022-10-27T19:16:28.754Z,3.05
2022-10-27T19:18:57.957Z,3.50
2022-10-27T19:21:24.664Z,3.20
2022-10-27T19:24:00.471Z,3.17
2022-10-27T19:26:29.460Z,3.00
2022-10-27T19:28:57.662Z,3.35
2022-10-27T19:31:30.002Z,3.00
2022-10-27T19:33:58.277Z,2.85
2022-10-27T19:36:30.821Z,3.13
2022-10-27T19:38:59.583Z,3.40
2022-10-27T19:41:29.279Z,3.03
2022-10-27T19:44:00.096Z,3.10
2022-10-27T19:46:28.398Z,3.00
2022-10-27T19:48:57.187Z,3.33
2022-10-27T19:51:26.413Z,3.00
2022-10-27T19:53:56.340Z,3.60
2022-10-27T19:56:24.569Z,3.90
2022-10-27T19:58:53.134Z,3.33
2022-10-27T20:01:34.239Z,3.10
2022-10-27T20:04:02.451Z,2.93
2022-10-27T20:06:29.015Z,3.20
2022-10-27T20:08:56.565Z,2.88
2022-10-27T20:11:26.777Z,2.80
2022-10-27T20:13:55.487Z,2.80
2022-10-27T20:16:27.815Z,2.70
2022-10-27T20:18:54.413Z,2.88
2022-10-27T20:21:23.524Z,2.78
2022-10-27T20:23:50.018Z,3.08
2022-10-27T20:26:33.955Z,3.15
2022-10-27T20:29:01.277Z,3.00
2022-10-27T20:31:28.931Z,2.90
2022-10-27T20:34:02.261Z,2.85
2022-10-27T20:36:28.758Z,2.92
2022-10-27T20:38:56.501Z,3.22
2022-10-27T20:41:25.397Z,3.30
2022-10-27T20:43:55.528Z,3.42
2022-10-27T20:46:23.133Z,3.22
2022-10-27T20:48:50.922Z,3.22
2022-10-27T20:51:17.972Z,3.15
2022-10-27T20:53:44.617Z,2.92
2022-10-27T20:56:20.399Z,3.13
2022-10-27T20:58:48.061Z,2.95
2022-10-27T21:01:26.669Z,3.30
2022-10-27T21:04:04.069Z,2.58
2022-10-27T21:06:33.414Z,2.97
2022-10-27T21:09:02.865Z,2.88
2022-10-27T21:11:29.671Z,3.40
2022-10-27T21:13:59.261Z,2.95
2022-10-27T21:16:26.586Z,2.65
2022-10-27T21:18:55.372Z,2.88
2022-10-27T21:21:23.614Z,2.60
2022-10-27T21:23:50.431Z,2.67
2022-10-27T21:26:18.309Z,3.08
2022-10-27T21:28:51.249Z,3.17
2022-10-27T21:31:18.178Z,2.70
2022-10-27T21:33:44.720Z,2.75
2022-10-27T21:36:12.101Z,2.67
2022-10-27T21:38:38.694Z,2.45
2022-10-27T21:41:05.936Z,2.65
2022-10-27T21:43:42.537Z,2.90
2022-10-27T21:46:14.639Z,2.97
2022-10-27T21:48:41.412Z,2.95
2022-10-27T21:51:08.112Z,3.03
2022-10-27T21:53:34.609Z,2.47
2022-10-27T21:56:10.792Z,2.47
2022-10-27T21:58:37.451Z,2.90
2022-10-27T22:01:15.427Z,3.22
2022-10-27T22:03:43.187Z,3.03
2022-10-27T22:06:19.833Z,2.95
2022-10-27T22:08:47.263Z,2.45
2022-10-27T22:11:16.831Z,2.75
2022-10-27T22:13:43.698Z,2.90
2022-10-27T22:16:13.962Z,2.67
2022-10-27T22:18:41.701Z,3.20
2022-10-27T22:21:14.038Z,2.70
2022-10-27T22:23:41.314Z,2.28
2022-10-27T22:26:11.012Z,2.70
2022-10-27T22:28:37.651Z,2.45
2022-10-27T22:31:06.882Z,2.70
2022-10-27T22:33:33.679Z,2.42
2022-10-27T22:36:01.928Z,2.58
2022-10-27T22:38:28.864Z,2.72
2022-10-27T22:41:02.186Z,3.28
2022-10-27T22:43:32.219Z,2.40
2022-10-27T22:45:58.764Z,2.83
2022-10-27T22:48:25.668Z,2.58
2022-10-27T22:51:02.812Z,2.75
2022-10-27T22:53:30.757Z,2.65
2022-10-27T22:55:57.243Z,2.80
2022-10-27T22:58:23.823Z,2.67
2022-10-27T23:00:53.675Z,2.58
2022-10-27T23:03:20.244Z,2.60
2022-10-27T23:05:46.724Z,2.80
2022-10-27T23:08:13.177Z,2.90
2022-10-27T23:10:41.233Z,2.95
2022-10-27T23:13:07.717Z,2.60
2022-10-27T23:15:34.225Z,2.58
2022-10-27T23:18:00.668Z,2.53
2022-10-27T23:20:27.158Z,2.88
2022-10-27T23:22:53.940Z,3.28
2022-10-27T23:25:20.623Z,3.05
2022-10-27T23:27:47.073Z,2.90
2022-10-27T23:30:13.679Z,2.85
2022-10-27T23:32:45.911Z,3.42
2022-10-27T23:35:12.369Z,3.00
2022-10-27T23:37:38.912Z,2.97
2022-10-27T23:40:05.961Z,3.28
2022-10-27T23:42:32.463Z,2.92
2022-10-27T23:44:58.896Z,3.10
2022-10-27T23:47:25.450Z,3.20
2022-10-27T23:49:55.003Z,3.10
2022-10-27T23:52:21.501Z,3.38
2022-10-27T23:54:47.965Z,2.92
2022-10-27T23:57:14.490Z,3.05
2022-10-27T23:59:41.185Z,3.22
